sensor_id;sensor_type;location;lat;lon;timestamp;pressure;altitude;pressure_sealevel;temperature;humidity
10261;BME280;5175;42.606;23.388;2023-04-26T00:00:02;92815.94;;;8.96;100.00
10261;BME280;5175;42.606;23.388;2023-04-26T00:02:39;92829.84;;;9.07;100.00
10261;BME280;5175;42.606;23.388;2023-04-26T00:05:08;92777.44;;;8.61;100.00
10261;BME280;5175;42.606;23.388;2023-04-26T00:07:35;92833.06;;;8.90;100.00
10261;BME280;5175;42.606;23.388;2023-04-26T00:10:03;92824.47;;;8.79;100.00
10261;BME280;5175;42.606;23.388;2023-04-26T00:12:30;92779.53;;;8.46;100.00
10261;BME280;5175;42.606;23.388;2023-04-26T00:14:57;92821.81;;;8.61;100.00
10261;BME280;5175;42.606;23.388;2023-04-26T00:17:24;92698.91;;;7.81;100.00
10261;BME280;5175;42.606;23.388;2023-04-26T00:19:51;92768.84;;;8.13;100.00
10261;BME280;5175;42.606;23.388;2023-04-26T00:22:20;92775.59;;;8.06;100.00
10261;BME280;5175;42.606;23.388;2023-04-26T00:24:47;92735.38;;;7.75;100.00
10261;BME280;5175;42.606;23.388;2023-04-26T00:27:13;92803.72;;;8.07;100.00
10261;BME280;5175;42.606;23.388;2023-04-26T00:29:40;92819.84;;;7.92;100.00
10261;BME280;5175;42.606;23.388;2023-04-26T00:32:07;92789.84;;;7.73;100.00
10261;BME280;5175;42.606;23.388;2023-04-26T00:34:35;92717.13;;;7.50;100.00
10261;BME280;5175;42.606;23.388;2023-04-26T00:37:03;92783.25;;;7.89;100.00
10261;BME280;5175;42.606;23.388;2023-04-26T00:39:32;92791.50;;;7.87;100.00
10261;BME280;5175;42.606;23.388;2023-04-26T00:41:59;92735.13;;;7.53;100.00
10261;BME280;5175;42.606;23.388;2023-04-26T00:44:26;92761.22;;;7.46;100.00
10261;BME280;5175;42.606;23.388;2023-04-26T00:46:53;92634.06;;;6.70;100.00
10261;BME280;5175;42.606;23.388;2023-04-26T00:49:22;92772.66;;;7.46;100.00
10261;BME280;5175;42.606;23.388;2023-04-26T00:51:50;92736.56;;;7.22;100.00
10261;BME280;5175;42.606;23.388;2023-04-26T00:54:18;92753.16;;;7.56;100.00
10261;BME280;5175;42.606;23.388;2023-04-26T00:56:47;92724.72;;;7.14;100.00
10261;BME280;5175;42.606;23.388;2023-04-26T00:59:17;92662.34;;;6.74;100.00
10261;BME280;5175;42.606;23.388;2023-04-26T01:01:44;92642.53;;;6.43;100.00
10261;BME280;5175;42.606;23.388;2023-04-26T01:04:13;92693.19;;;6.89;100.00
10261;BME280;5175;42.606;23.388;2023-04-26T01:06:40;92794.38;;;7.48;100.00
10261;BME280;5175;42.606;23.388;2023-04-26T01:09:07;92801.97;;;7.55;100.00
10261;BME280;5175;42.606;23.388;2023-04-26T01:11:37;92796.03;;;7.44;100.00
10261;BME280;5175;42.606;23.388;2023-04-26T01:14:05;92641.69;;;6.19;100.00
10261;BME280;5175;42.606;23.388;2023-04-26T01:16:33;92791.53;;;7.40;100.00
10261;BME280;5175;42.606;23.388;2023-04-26T01:19:07;92679.25;;;6.55;100.00
10261;BME280;5175;42.606;23.388;2023-04-26T01:21:35;92723.91;;;6.95;100.00
10261;BME280;5175;42.606;23.388;2023-04-26T01:24:04;92761.69;;;7.29;100.00
10261;BME280;5175;42.606;23.388;2023-04-26T01:26:31;92687.09;;;6.65;100.00
10261;BME280;5175;42.606;23.388;2023-04-26T01:28:58;92617.28;;;6.51;100.00
10261;BME280;5175;42.606;23.388;2023-04-26T01:31:26;92748.78;;;7.23;100.00
10261;BME280;5175;42.606;23.388;2023-04-26T01:33:53;92763.03;;;7.27;100.00
10261;BME280;5175;42.606;23.388;2023-04-26T01:36:20;92673.16;;;6.78;100.00
10261;BME280;5175;42.606;23.388;2023-04-26T01:38:47;92673.50;;;6.71;100.00
10261;BME280;5175;42.606;23.388;2023-04-26T01:41:15;92788.75;;;7.31;100.00
10261;BME280;5175;42.606;23.388;2023-04-26T01:43:42;92799.97;;;7.23;100.00
10261;BME280;5175;42.606;23.388;2023-04-26T01:46:09;92823.03;;;7.23;100.00
10261;BME280;5175;42.606;23.388;2023-04-26T01:48:36;92792.56;;;7.20;100.00
10261;BME280;5175;42.606;23.388;2023-04-26T01:51:03;92649.88;;;6.22;100.00
10261;BME280;5175;42.606;23.388;2023-04-26T01:53:30;92790.25;;;7.14;100.00
10261;BME280;5175;42.606;23.388;2023-04-26T01:55:59;92796.00;;;7.21;100.00
10261;BME280;5175;42.606;23.388;2023-04-26T01:58:28;92638.41;;;6.32;100.00
10261;BME280;5175;42.606;23.388;2023-04-26T02:00:55;92776.03;;;7.28;100.00
10261;BME280;5175;42.606;23.388;2023-04-26T02:03:22;92619.47;;;6.20;100.00
10261;BME280;5175;42.606;23.388;2023-04-26T02:05:49;92753.13;;;7.14;100.00
10261;BME280;5175;42.606;23.388;2023-04-26T02:08:16;92619.72;;;6.23;100.00
10261;BME280;5175;42.606;23.388;2023-04-26T02:10:43;92737.25;;;6.85;100.00
10261;BME280;5175;42.606;23.388;2023-04-26T02:13:10;92643.34;;;6.15;100.00
10261;BME280;5175;42.606;23.388;2023-04-26T02:15:38;92745.06;;;6.71;100.00
10261;BME280;5175;42.606;23.388;2023-04-26T02:18:05;92620.28;;;5.87;100.00
10261;BME280;5175;42.606;23.388;2023-04-26T02:20:33;92777.28;;;6.83;100.00
10261;BME280;5175;42.606;23.388;2023-04-26T02:23:01;92592.47;;;5.55;100.00
10261;BME280;5175;42.606;23.388;2023-04-26T02:25:28;92727.34;;;6.38;100.00
10261;BME280;5175;42.606;23.388;2023-04-26T02:27:55;92632.09;;;5.60;100.00
10261;BME280;5175;42.606;23.388;2023-04-26T02:30:22;92712.44;;;6.18;100.00
10261;BME280;5175;42.606;23.388;2023-04-26T02:32:52;92633.16;;;5.64;100.00
10261;BME280;5175;42.606;23.388;2023-04-26T02:35:19;92649.94;;;5.84;100.00
10261;BME280;5175;42.606;23.388;2023-04-26T02:37:46;92775.47;;;6.79;100.00
10261;BME280;5175;42.606;23.388;2023-04-26T02:40:14;92728.41;;;6.37;100.00
10261;BME280;5175;42.606;23.388;2023-04-26T02:42:42;92697.31;;;6.19;100.00
10261;BME280;5175;42.606;23.388;2023-04-26T02:45:09;92753.81;;;6.43;100.00
10261;BME280;5175;42.606;23.388;2023-04-26T02:47:36;92755.69;;;6.38;100.00
10261;BME280;5175;42.606;23.388;2023-04-26T02:50:05;92738.09;;;6.52;100.00
10261;BME280;5175;42.606;23.388;2023-04-26T02:52:33;92698.84;;;6.25;100.00
10261;BME280;5175;42.606;23.388;2023-04-26T02:55:00;92739.16;;;6.51;100.00
10261;BME280;5175;42.606;23.388;2023-04-26T02:57:28;92737.03;;;6.53;100.00
10261;BME280;5175;42.606;23.388;2023-04-26T02:59:55;92643.38;;;6.10;100.00
10261;BME280;5175;42.606;23.388;2023-04-26T03:02:23;92754.13;;;6.94;100.00
10261;BME280;5175;42.606;23.388;2023-04-26T03:04:50;92767.44;;;7.13;100.00
10261;BME280;5175;42.606;23.388;2023-04-26T03:07:18;92743.06;;;6.87;100.00
10261;BME280;5175;42.606;23.388;2023-04-26T03:09:45;92753.13;;;7.14;100.00
10261;BME280;5175;42.606;23.388;2023-04-26T03:12:12;92676.09;;;6.76;100.00
10261;BME280;5175;42.606;23.388;2023-04-26T03:14:39;92668.59;;;6.83;100.00
10261;BME280;5175;42.606;23.388;2023-04-26T03:17:06;92754.41;;;7.40;100.00
10261;BME280;5175;42.606;23.388;2023-04-26T03:19:33;92689.19;;;6.91;100.00
10261;BME280;5175;42.606;23.388;2023-04-26T03:22:00;92752.94;;;7.05;100.00
10261;BME280;5175;42.606;23.388;2023-04-26T03:24:28;92668.53;;;6.41;100.00
10261;BME280;5175;42.606;23.388;2023-04-26T03:26:56;92730.97;;;6.76;100.00
10261;BME280;5175;42.606;23.388;2023-04-26T03:29:24;92750.25;;;7.10;100.00
10261;BME280;5175;42.606;23.388;2023-04-26T03:31:51;92583.34;;;6.05;100.00
10261;BME280;5175;42.606;23.388;2023-04-26T03:34:18;92587.84;;;6.05;100.00
10261;BME280;5175;42.606;23.388;2023-04-26T03:36:45;92615.38;;;6.32;100.00
10261;BME280;5175;42.606;23.388;2023-04-26T03:39:12;92682.47;;;6.75;100.00
10261;BME280;5175;42.606;23.388;2023-04-26T03:41:40;92756.00;;;7.17;100.00
10261;BME280;5175;42.606;23.388;2023-04-26T03:44:07;92730.81;;;6.91;100.00
10261;BME280;5175;42.606;23.388;2023-04-26T03:46:34;92628.78;;;6.41;100.00
10261;BME280;5175;42.606;23.388;2023-04-26T03:49:01;92755.13;;;7.22;100.00
10261;BME280;5175;42.606;23.388;2023-04-26T03:51:28;92761.47;;;7.26;100.00
10261;BME280;5175;42.606;23.388;2023-04-26T03:53:57;92710.28;;;7.02;100.00
10261;BME280;5175;42.606;23.388;2023-04-26T03:56:25;92643.69;;;6.61;100.00
10261;BME280;5175;42.606;23.388;2023-04-26T03:58:53;92604.34;;;6.49;100.00
10261;BME280;5175;42.606;23.388;2023-04-26T04:01:21;92714.91;;;7.15;100.00
10261;BME280;5175;42.606;23.388;2023-04-26T04:03:48;92727.91;;;7.58;100.00
10261;BME280;5175;42.606;23.388;2023-04-26T04:06:15;92769.38;;;7.73;100.00
10261;BME280;5175;42.606;23.388;2023-04-26T04:08:42;92702.88;;;7.22;100.00
10261;BME280;5175;42.606;23.388;2023-04-26T04:11:09;92572.81;;;6.48;100.00
10261;BME280;5175;42.606;23.388;2023-04-26T04:13:37;92786.13;;;7.92;100.00
10261;BME280;5175;42.606;23.388;2023-04-26T04:16:06;92697.91;;;7.39;100.00
10261;BME280;5175;42.606;23.388;2023-04-26T04:18:34;92760.13;;;7.89;100.00
10261;BME280;5175;42.606;23.388;2023-04-26T04:21:01;92759.81;;;7.96;100.00
10261;BME280;5175;42.606;23.388;2023-04-26T04:23:28;92773.63;;;8.11;100.00
10261;BME280;5175;42.606;23.388;2023-04-26T04:25:55;92796.63;;;8.21;100.00
10261;BME280;5175;42.606;23.388;2023-04-26T04:28:22;92672.50;;;7.71;100.00
10261;BME280;5175;42.606;23.388;2023-04-26T04:30:49;92710.41;;;7.95;100.00
10261;BME280;5175;42.606;23.388;2023-04-26T04:33:18;92792.06;;;8.27;100.00
10261;BME280;5175;42.606;23.388;2023-04-26T04:35:45;92670.22;;;7.64;100.00
10261;BME280;5175;42.606;23.388;2023-04-26T04:38:12;92750.66;;;8.20;100.00
10261;BME280;5175;42.606;23.388;2023-04-26T04:40:38;92761.81;;;8.41;100.00
10261;BME280;5175;42.606;23.388;2023-04-26T04:43:05;92797.97;;;8.56;100.00
10261;BME280;5175;42.606;23.388;2023-04-26T04:45:32;92686.22;;;7.96;100.00
10261;BME280;5175;42.606;23.388;2023-04-26T04:47:59;92797.09;;;8.79;100.00
10261;BME280;5175;42.606;23.388;2023-04-26T04:50:31;92718.72;;;8.44;100.00
10261;BME280;5175;42.606;23.388;2023-04-26T04:52:58;92787.06;;;8.90;100.00
10261;BME280;5175;42.606;23.388;2023-04-26T04:55:25;92629.88;;;7.99;100.00
10261;BME280;5175;42.606;23.388;2023-04-26T04:57:52;92702.13;;;8.34;100.00
10261;BME280;5175;42.606;23.388;2023-04-26T05:00:19;92724.56;;;8.73;100.00
10261;BME280;5175;42.606;23.388;2023-04-26T05:02:47;92637.13;;;8.26;100.00
10261;BME280;5175;42.606;23.388;2023-04-26T05:05:13;92733.28;;;8.93;100.00
10261;BME280;5175;42.606;23.388;2023-04-26T05:07:42;92692.41;;;8.75;100.00
10261;BME280;5175;42.606;23.388;2023-04-26T05:10:10;92749.06;;;9.03;100.00
10261;BME280;5175;42.606;23.388;2023-04-26T05:12:37;92739.41;;;9.20;100.00
10261;BME280;5175;42.606;23.388;2023-04-26T05:15:05;92671.13;;;8.75;100.00
10261;BME280;5175;42.606;23.388;2023-04-26T05:17:33;92773.53;;;9.45;100.00
10261;BME280;5175;42.606;23.388;2023-04-26T05:20:00;92781.31;;;9.56;100.00
10261;BME280;5175;42.606;23.388;2023-04-26T05:22:30;92784.97;;;9.73;100.00
10261;BME280;5175;42.606;23.388;2023-04-26T05:25:01;92808.66;;;9.75;100.00
10261;BME280;5175;42.606;23.388;2023-04-26T05:27:29;92702.47;;;9.19;100.00
10261;BME280;5175;42.606;23.388;2023-04-26T05:29:56;92772.66;;;9.77;100.00
10261;BME280;5175;42.606;23.388;2023-04-26T05:32:22;92813.34;;;10.05;100.00
10261;BME280;5175;42.606;23.388;2023-04-26T05:34:49;92719.50;;;9.45;100.00
10261;BME280;5175;42.606;23.388;2023-04-26T05:37:16;92719.59;;;9.54;100.00
10261;BME280;5175;42.606;23.388;2023-04-26T05:39:43;92738.22;;;9.67;100.00
10261;BME280;5175;42.606;23.388;2023-04-26T05:42:11;92631.03;;;9.12;100.00
10261;BME280;5175;42.606;23.388;2023-04-26T05:44:38;92805.28;;;10.24;100.00
10261;BME280;5175;42.606;23.388;2023-04-26T05:47:05;92668.56;;;9.24;100.00
10261;BME280;5175;42.606;23.388;2023-04-26T05:49:32;92845.94;;;10.29;100.00
10261;BME280;5175;42.606;23.388;2023-04-26T05:51:59;92715.75;;;9.60;100.00
10261;BME280;5175;42.606;23.388;2023-04-26T05:54:28;92787.53;;;10.19;100.00
10261;BME280;5175;42.606;23.388;2023-04-26T05:56:55;92763.94;;;10.13;100.00
10261;BME280;5175;42.606;23.388;2023-04-26T05:59:23;92673.66;;;9.48;100.00
10261;BME280;5175;42.606;23.388;2023-04-26T06:01:50;92785.50;;;10.25;100.00
10261;BME280;5175;42.606;23.388;2023-04-26T06:04:17;92740.03;;;9.94;100.00
10261;BME280;5175;42.606;23.388;2023-04-26T06:06:44;92838.28;;;10.50;100.00
10261;BME280;5175;42.606;23.388;2023-04-26T06:09:11;92795.44;;;10.46;100.00
10261;BME280;5175;42.606;23.388;2023-04-26T06:11:37;92834.13;;;10.80;100.00
10261;BME280;5175;42.606;23.388;2023-04-26T06:14:04;92787.78;;;10.53;100.00
10261;BME280;5175;42.606;23.388;2023-04-26T06:16:33;92683.59;;;10.05;100.00
10261;BME280;5175;42.606;23.388;2023-04-26T06:19:00;92810.09;;;11.02;100.00
10261;BME280;5175;42.606;23.388;2023-04-26T06:21:27;92833.53;;;11.27;100.00
10261;BME280;5175;42.606;23.388;2023-04-26T06:23:54;92803.03;;;11.19;100.00
10261;BME280;5175;42.606;23.388;2023-04-26T06:26:21;92812.50;;;11.65;100.00
10261;BME280;5175;42.606;23.388;2023-04-26T06:28:48;92724.78;;;11.50;100.00
10261;BME280;5175;42.606;23.388;2023-04-26T06:31:15;92792.56;;;12.02;100.00
10261;BME280;5175;42.606;23.388;2023-04-26T06:33:43;92773.34;;;11.91;100.00
10261;BME280;5175;42.606;23.388;2023-04-26T06:36:10;92804.81;;;12.11;100.00
10261;BME280;5175;42.606;23.388;2023-04-26T06:38:38;92699.09;;;11.31;100.00
10261;BME280;5175;42.606;23.388;2023-04-26T06:41:05;92829.88;;;12.24;100.00
10261;BME280;5175;42.606;23.388;2023-04-26T06:43:32;92813.75;;;11.98;100.00
10261;BME280;5175;42.606;23.388;2023-04-26T06:45:59;92840.19;;;11.69;100.00
10261;BME280;5175;42.606;23.388;2023-04-26T06:48:26;92690.78;;;10.63;100.00
10261;BME280;5175;42.606;23.388;2023-04-26T06:50:55;92870.84;;;11.71;100.00
10261;BME280;5175;42.606;23.388;2023-04-26T06:53:22;92830.94;;;11.44;100.00
10261;BME280;5175;42.606;23.388;2023-04-26T06:55:49;92731.81;;;10.76;100.00
10261;BME280;5175;42.606;23.388;2023-04-26T06:58:17;92735.25;;;11.07;100.00
10261;BME280;5175;42.606;23.388;2023-04-26T07:00:44;92750.38;;;10.89;100.00
10261;BME280;5175;42.606;23.388;2023-04-26T07:03:11;92794.63;;;11.43;100.00
10261;BME280;5175;42.606;23.388;2023-04-26T07:05:38;92850.31;;;11.80;100.00
10261;BME280;5175;42.606;23.388;2023-04-26T07:08:07;92849.91;;;11.96;100.00
10261;BME280;5175;42.606;23.388;2023-04-26T07:10:33;92805.44;;;11.38;100.00
10261;BME280;5175;42.606;23.388;2023-04-26T07:13:00;92855.22;;;11.87;100.00
10261;BME280;5175;42.606;23.388;2023-04-26T07:15:27;92853.72;;;12.03;100.00
10261;BME280;5175;42.606;23.388;2023-04-26T07:17:55;92840.00;;;11.96;100.00
10261;BME280;5175;42.606;23.388;2023-04-26T07:20:22;92846.91;;;11.88;100.00
10261;BME280;5175;42.606;23.388;2023-04-26T07:22:49;92756.56;;;11.29;100.00
10261;BME280;5175;42.606;23.388;2023-04-26T07:25:18;92856.00;;;11.87;89.98
10261;BME280;5175;42.606;23.388;2023-04-26T07:27:45;92767.03;;;11.56;86.32
10261;BME280;5175;42.606;23.388;2023-04-26T07:30:12;92717.94;;;11.26;83.77
10261;BME280;5175;42.606;23.388;2023-04-26T07:32:39;92811.66;;;11.78;83.06
10261;BME280;5175;42.606;23.388;2023-04-26T07:35:07;92863.88;;;12.40;82.63
10261;BME280;5175;42.606;23.388;2023-04-26T07:37:40;92778.53;;;11.96;77.08
10261;BME280;5175;42.606;23.388;2023-04-26T07:40:09;92789.38;;;11.91;72.45
10261;BME280;5175;42.606;23.388;2023-04-26T07:42:39;92891.00;;;12.65;72.41
10261;BME280;5175;42.606;23.388;2023-04-26T07:45:07;92842.16;;;12.33;70.21
10261;BME280;5175;42.606;23.388;2023-04-26T07:47:34;92878.34;;;12.48;78.11
10261;BME280;5175;42.606;23.388;2023-04-26T07:50:01;92847.13;;;12.09;69.62
10261;BME280;5175;42.606;23.388;2023-04-26T07:52:28;92862.31;;;12.39;74.17
10261;BME280;5175;42.606;23.388;2023-04-26T07:54:55;92884.84;;;12.64;72.78
10261;BME280;5175;42.606;23.388;2023-04-26T07:57:22;92792.75;;;12.31;73.38
10261;BME280;5175;42.606;23.388;2023-04-26T07:59:50;92887.25;;;12.83;72.54
10261;BME280;5175;42.606;23.388;2023-04-26T08:02:17;92801.38;;;11.71;74.38
10261;BME280;5175;42.606;23.388;2023-04-26T08:04:47;92877.94;;;12.07;73.60
10261;BME280;5175;42.606;23.388;2023-04-26T08:07:17;92866.50;;;12.23;73.68
10261;BME280;5175;42.606;23.388;2023-04-26T08:09:44;92777.41;;;11.18;72.34
10261;BME280;5175;42.606;23.388;2023-04-26T08:12:11;92873.47;;;12.41;74.79
10261;BME280;5175;42.606;23.388;2023-04-26T08:14:38;92774.88;;;11.92;72.62
10261;BME280;5175;42.606;23.388;2023-04-26T08:17:07;92818.00;;;11.99;73.77
10261;BME280;5175;42.606;23.388;2023-04-26T08:19:35;92743.44;;;11.80;72.58
10261;BME280;5175;42.606;23.388;2023-04-26T08:22:02;92882.75;;;12.35;76.00
10261;BME280;5175;42.606;23.388;2023-04-26T08:24:30;92927.06;;;12.19;74.26
10261;BME280;5175;42.606;23.388;2023-04-26T08:26:57;92795.09;;;11.37;73.76
10261;BME280;5175;42.606;23.388;2023-04-26T08:29:25;92837.44;;;11.82;74.77
10261;BME280;5175;42.606;23.388;2023-04-26T08:31:52;92883.78;;;12.17;74.60
10261;BME280;5175;42.606;23.388;2023-04-26T08:34:20;92893.75;;;11.86;74.71
10261;BME280;5175;42.606;23.388;2023-04-26T08:36:47;92773.31;;;11.52;73.25
10261;BME280;5175;42.606;23.388;2023-04-26T08:39:14;92884.78;;;12.30;74.44
10261;BME280;5175;42.606;23.388;2023-04-26T08:41:43;92874.31;;;12.59;74.87
10261;BME280;5175;42.606;23.388;2023-04-26T08:44:11;92887.69;;;12.68;69.28
10261;BME280;5175;42.606;23.388;2023-04-26T08:46:46;92851.44;;;12.36;72.26
10261;BME280;5175;42.606;23.388;2023-04-26T08:49:25;92814.97;;;11.83;69.43
10261;BME280;5175;42.606;23.388;2023-04-26T08:51:55;92865.56;;;12.28;70.08
10261;BME280;5175;42.606;23.388;2023-04-26T08:54:23;92714.66;;;11.38;71.01
10261;BME280;5175;42.606;23.388;2023-04-26T08:56:52;92750.53;;;11.54;71.31
10261;BME280;5175;42.606;23.388;2023-04-26T08:59:21;92763.09;;;11.84;68.97
10261;BME280;5175;42.606;23.388;2023-04-26T09:01:49;92912.22;;;12.61;69.22
10261;BME280;5175;42.606;23.388;2023-04-26T09:04:16;92788.91;;;11.98;69.02
10261;BME280;5175;42.606;23.388;2023-04-26T09:06:44;92804.28;;;11.83;69.38
10261;BME280;5175;42.606;23.388;2023-04-26T09:09:12;92768.78;;;11.52;69.64
10261;BME280;5175;42.606;23.388;2023-04-26T09:11:54;92861.94;;;11.76;71.96
10261;BME280;5175;42.606;23.388;2023-04-26T09:14:22;92869.16;;;11.75;73.05
10261;BME280;5175;42.606;23.388;2023-04-26T09:16:49;92846.19;;;11.44;73.54
10261;BME280;5175;42.606;23.388;2023-04-26T09:19:17;92891.47;;;12.02;74.23
10261;BME280;5175;42.606;23.388;2023-04-26T09:22:02;92883.63;;;12.14;73.32
10261;BME280;5175;42.606;23.388;2023-04-26T09:24:45;92859.25;;;12.15;71.50
10261;BME280;5175;42.606;23.388;2023-04-26T09:27:12;92733.09;;;11.17;71.35
10261;BME280;5175;42.606;23.388;2023-04-26T09:29:42;92926.31;;;12.36;73.19
10261;BME280;5175;42.606;23.388;2023-04-26T09:32:22;92924.56;;;12.71;72.49
10261;BME280;5175;42.606;23.388;2023-04-26T09:34:50;92842.44;;;12.23;72.64
10261;BME280;5175;42.606;23.388;2023-04-26T09:37:18;92888.47;;;12.60;69.02
10261;BME280;5175;42.606;23.388;2023-04-26T09:39:45;92860.22;;;12.19;68.94
10261;BME280;5175;42.606;23.388;2023-04-26T09:42:15;92910.72;;;12.94;69.98
10261;BME280;5175;42.606;23.388;2023-04-26T09:44:43;92848.97;;;12.56;71.50
10261;BME280;5175;42.606;23.388;2023-04-26T09:47:11;92784.22;;;12.20;68.78
10261;BME280;5175;42.606;23.388;2023-04-26T09:49:47;92890.06;;;12.69;68.49
10261;BME280;5175;42.606;23.388;2023-04-26T09:52:18;92908.66;;;12.83;68.15
10261;BME280;5175;42.606;23.388;2023-04-26T09:54:46;92917.31;;;12.80;67.39
10261;BME280;5175;42.606;23.388;2023-04-26T09:57:14;92826.75;;;12.39;68.92
10261;BME280;5175;42.606;23.388;2023-04-26T09:59:43;92750.19;;;11.86;65.78
10261;BME280;5175;42.606;23.388;2023-04-26T10:02:16;92915.31;;;13.28;66.05
10261;BME280;5175;42.606;23.388;2023-04-26T10:04:45;92919.25;;;13.39;63.38
10261;BME280;5175;42.606;23.388;2023-04-26T10:07:14;92810.88;;;12.42;65.20
10261;BME280;5175;42.606;23.388;2023-04-26T10:09:43;92801.56;;;12.48;65.68
10261;BME280;5175;42.606;23.388;2023-04-26T10:12:12;92794.88;;;11.94;67.42
10261;BME280;5175;42.606;23.388;2023-04-26T10:14:40;92746.31;;;12.18;67.02
10261;BME280;5175;42.606;23.388;2023-04-26T10:17:07;92857.50;;;13.27;66.88
10261;BME280;5175;42.606;23.388;2023-04-26T10:19:35;92827.13;;;13.14;62.84
10261;BME280;5175;42.606;23.388;2023-04-26T10:22:04;92760.81;;;12.69;66.06
10261;BME280;5175;42.606;23.388;2023-04-26T10:24:33;92884.69;;;13.72;65.26
10261;BME280;5175;42.606;23.388;2023-04-26T10:27:02;92843.19;;;13.87;60.63
10261;BME280;5175;42.606;23.388;2023-04-26T10:30:05;92891.34;;;13.66;61.70
10261;BME280;5175;42.606;23.388;2023-04-26T10:36:02;92902.63;;;13.89;59.93
10261;BME280;5175;42.606;23.388;2023-04-26T10:38:30;92863.34;;;13.29;61.16
10261;BME280;5175;42.606;23.388;2023-04-26T10:41:28;92902.06;;;13.66;61.48
10261;BME280;5175;42.606;23.388;2023-04-26T10:43:57;92882.03;;;13.63;60.28
10261;BME280;5175;42.606;23.388;2023-04-26T10:46:33;92886.91;;;13.78;60.28
10261;BME280;5175;42.606;23.388;2023-04-26T10:49:12;92823.63;;;13.05;59.07
10261;BME280;5175;42.606;23.388;2023-04-26T10:51:39;92851.81;;;13.29;60.11
10261;BME280;5175;42.606;23.388;2023-04-26T10:54:06;92776.72;;;12.91;60.02
10261;BME280;5175;42.606;23.388;2023-04-26T10:56:52;92764.91;;;13.09;60.59
10261;BME280;5175;42.606;23.388;2023-04-26T10:59:21;92740.16;;;13.03;61.55
10261;BME280;5175;42.606;23.388;2023-04-26T11:01:48;92836.97;;;13.57;58.21
10261;BME280;5175;42.606;23.388;2023-04-26T11:04:15;92787.19;;;13.47;56.33
10261;BME280;5175;42.606;23.388;2023-04-26T11:06:49;92902.31;;;14.28;58.43
10261;BME280;5175;42.606;23.388;2023-04-26T11:09:32;92852.97;;;13.74;56.85
10261;BME280;5175;42.606;23.388;2023-04-26T11:12:03;92789.75;;;13.01;55.91
10261;BME280;5175;42.606;23.388;2023-04-26T11:14:31;92877.38;;;13.98;56.61
10261;BME280;5175;42.606;23.388;2023-04-26T11:17:02;92857.06;;;13.80;56.22
10261;BME280;5175;42.606;23.388;2023-04-26T11:19:29;92884.50;;;13.94;55.60
10261;BME280;5175;42.606;23.388;2023-04-26T11:21:55;92899.91;;;14.06;54.98
10261;BME280;5175;42.606;23.388;2023-04-26T11:24:26;92840.47;;;13.40;55.86
10261;BME280;5175;42.606;23.388;2023-04-26T11:26:53;92770.56;;;12.82;54.33
10261;BME280;5175;42.606;23.388;2023-04-26T11:29:21;92907.31;;;14.09;54.62
10261;BME280;5175;42.606;23.388;2023-04-26T11:31:54;92900.97;;;13.58;56.38
10261;BME280;5175;42.606;23.388;2023-04-26T11:34:21;92840.31;;;13.45;56.21
10261;BME280;5175;42.606;23.388;2023-04-26T11:36:50;92834.31;;;13.40;54.40
10261;BME280;5175;42.606;23.388;2023-04-26T11:39:20;92911.72;;;14.05;55.32
10261;BME280;5175;42.606;23.388;2023-04-26T11:41:48;92826.16;;;13.82;55.24
10261;BME280;5175;42.606;23.388;2023-04-26T11:44:17;92908.47;;;14.66;56.07
10261;BME280;5175;42.606;23.388;2023-04-26T11:46:47;92811.25;;;14.40;53.85
10261;BME280;5175;42.606;23.388;2023-04-26T11:49:16;92748.69;;;14.19;51.09
10261;BME280;5175;42.606;23.388;2023-04-26T11:51:46;92756.91;;;14.14;52.42
10261;BME280;5175;42.606;23.388;2023-04-26T11:54:26;92774.56;;;14.44;52.87
10261;BME280;5175;42.606;23.388;2023-04-26T11:56:53;92870.66;;;15.21;51.72
10261;BME280;5175;42.606;23.388;2023-04-26T11:59:23;92806.56;;;14.78;51.29
10261;BME280;5175;42.606;23.388;2023-04-26T12:01:50;92695.44;;;14.29;49.25
10261;BME280;5175;42.606;23.388;2023-04-26T12:04:19;92867.31;;;15.65;49.61
10261;BME280;5175;42.606;23.388;2023-04-26T12:06:52;92818.03;;;15.20;51.31
10261;BME280;5175;42.606;23.388;2023-04-26T12:09:21;92873.84;;;15.77;48.69
10261;BME280;5175;42.606;23.388;2023-04-26T12:11:53;92724.63;;;15.05;49.28
10261;BME280;5175;42.606;23.388;2023-04-26T12:14:29;92889.03;;;15.60;48.69
10261;BME280;5175;42.606;23.388;2023-04-26T12:16:58;92708.97;;;14.33;48.15
10261;BME280;5175;42.606;23.388;2023-04-26T12:19:27;92760.50;;;14.47;49.30
10261;BME280;5175;42.606;23.388;2023-04-26T12:21:55;92868.53;;;15.15;49.24
10261;BME280;5175;42.606;23.388;2023-04-26T12:24:22;92828.16;;;14.82;49.43
10261;BME280;5175;42.606;23.388;2023-04-26T12:26:50;92876.19;;;14.83;52.01
10261;BME280;5175;42.606;23.388;2023-04-26T12:29:17;92878.47;;;14.93;54.38
10261;BME280;5175;42.606;23.388;2023-04-26T12:31:45;92859.84;;;15.30;51.69
10261;BME280;5175;42.606;23.388;2023-04-26T12:34:12;92829.06;;;15.27;51.89
10261;BME280;5175;42.606;23.388;2023-04-26T12:36:40;92752.06;;;14.78;49.92
10261;BME280;5175;42.606;23.388;2023-04-26T12:39:09;92840.13;;;15.46;51.48
10261;BME280;5175;42.606;23.388;2023-04-26T12:41:38;92822.47;;;15.04;49.82
10261;BME280;5175;42.606;23.388;2023-04-26T12:44:05;92772.44;;;14.00;49.93
10261;BME280;5175;42.606;23.388;2023-04-26T12:46:32;92817.53;;;14.44;51.56
10261;BME280;5175;42.606;23.388;2023-04-26T12:48:59;92852.84;;;14.75;52.94
10261;BME280;5175;42.606;23.388;2023-04-26T12:51:26;92823.75;;;14.77;51.75
10261;BME280;5175;42.606;23.388;2023-04-26T12:53:54;92677.59;;;13.84;50.65
10261;BME280;5175;42.606;23.388;2023-04-26T12:56:22;92862.94;;;15.20;49.15
10261;BME280;5175;42.606;23.388;2023-04-26T12:58:49;92796.41;;;14.63;49.30
10261;BME280;5175;42.606;23.388;2023-04-26T13:01:17;92760.69;;;14.13;49.97
10261;BME280;5175;42.606;23.388;2023-04-26T13:03:44;92761.50;;;14.13;51.58
10261;BME280;5175;42.606;23.388;2023-04-26T13:06:11;92820.19;;;14.15;52.88
10261;BME280;5175;42.606;23.388;2023-04-26T13:08:38;92703.34;;;12.83;51.92